sensor_id;sensor_type;location;lat;lon;timestamp;temperature;humidity
11532;DHT22;5822;51.000;5.874;2023-04-06T00:01:07;7.80;99.90
11532;DHT22;5822;51.000;5.874;2023-04-06T00:03:33;7.70;99.90
11532;DHT22;5822;51.000;5.874;2023-04-06T00:05:59;7.80;99.90
11532;DHT22;5822;51.000;5.874;2023-04-06T00:08:25;7.90;99.90
11532;DHT22;5822;51.000;5.874;2023-04-06T00:10:51;7.80;99.90
11532;DHT22;5822;51.000;5.874;2023-04-06T00:13:17;7.70;99.90
11532;DHT22;5822;51.000;5.874;2023-04-06T00:15:42;7.70;99.90
11532;DHT22;5822;51.000;5.874;2023-04-06T00:18:08;7.70;99.90
11532;DHT22;5822;51.000;5.874;2023-04-06T00:20:34;7.80;99.90
11532;DHT22;5822;51.000;5.874;2023-04-06T00:22:59;8.00;99.90
11532;DHT22;5822;51.000;5.874;2023-04-06T00:25:25;7.90;99.90
11532;DHT22;5822;51.000;5.874;2023-04-06T00:27:51;7.70;99.90
11532;DHT22;5822;51.000;5.874;2023-04-06T00:30:17;7.80;99.90
11532;DHT22;5822;51.000;5.874;2023-04-06T00:32:43;7.80;99.90
11532;DHT22;5822;51.000;5.874;2023-04-06T00:35:09;7.70;99.90
11532;DHT22;5822;51.000;5.874;2023-04-06T00:37:34;7.60;99.90
11532;DHT22;5822;51.000;5.874;2023-04-06T00:40:00;7.40;99.90
11532;DHT22;5822;51.000;5.874;2023-04-06T00:42:26;7.40;99.90
11532;DHT22;5822;51.000;5.874;2023-04-06T00:44:56;7.40;99.90
11532;DHT22;5822;51.000;5.874;2023-04-06T00:47:23;7.30;99.90
11532;DHT22;5822;51.000;5.874;2023-04-06T00:49:50;7.30;99.90
11532;DHT22;5822;51.000;5.874;2023-04-06T00:52:16;7.40;99.90
11532;DHT22;5822;51.000;5.874;2023-04-06T00:54:42;7.40;99.90
11532;DHT22;5822;51.000;5.874;2023-04-06T00:57:08;7.40;99.90
11532;DHT22;5822;51.000;5.874;2023-04-06T00:59:33;7.30;99.90
11532;DHT22;5822;51.000;5.874;2023-04-06T01:01:59;7.20;99.90
11532;DHT22;5822;51.000;5.874;2023-04-06T01:04:25;7.20;99.90
11532;DHT22;5822;51.000;5.874;2023-04-06T01:06:51;7.20;99.90
11532;DHT22;5822;51.000;5.874;2023-04-06T01:09:17;7.30;99.90
11532;DHT22;5822;51.000;5.874;2023-04-06T01:11:43;7.30;99.90
11532;DHT22;5822;51.000;5.874;2023-04-06T01:14:09;7.40;99.90
11532;DHT22;5822;51.000;5.874;2023-04-06T01:16:35;7.30;99.90
11532;DHT22;5822;51.000;5.874;2023-04-06T01:19:01;7.20;99.90
11532;DHT22;5822;51.000;5.874;2023-04-06T01:21:26;7.20;99.90
11532;DHT22;5822;51.000;5.874;2023-04-06T01:23:52;7.20;99.90
11532;DHT22;5822;51.000;5.874;2023-04-06T01:26:18;7.20;99.90
11532;DHT22;5822;51.000;5.874;2023-04-06T01:28:43;7.20;99.90
11532;DHT22;5822;51.000;5.874;2023-04-06T01:31:11;7.20;99.90
11532;DHT22;5822;51.000;5.874;2023-04-06T01:33:36;7.40;99.90
11532;DHT22;5822;51.000;5.874;2023-04-06T01:36:03;7.50;99.90
11532;DHT22;5822;51.000;5.874;2023-04-06T01:38:29;7.30;99.90
11532;DHT22;5822;51.000;5.874;2023-04-06T01:40:55;7.10;99.90
11532;DHT22;5822;51.000;5.874;2023-04-06T01:43:20;7.10;99.90
11532;DHT22;5822;51.000;5.874;2023-04-06T01:45:46;7.00;99.90
11532;DHT22;5822;51.000;5.874;2023-04-06T01:48:12;7.00;99.90
11532;DHT22;5822;51.000;5.874;2023-04-06T01:50:38;7.00;99.90
11532;DHT22;5822;51.000;5.874;2023-04-06T01:53:03;7.10;99.90
11532;DHT22;5822;51.000;5.874;2023-04-06T01:55:29;7.10;99.90
11532;DHT22;5822;51.000;5.874;2023-04-06T01:57:54;7.30;99.90
11532;DHT22;5822;51.000;5.874;2023-04-06T02:00:20;7.40;99.90
11532;DHT22;5822;51.000;5.874;2023-04-06T02:02:46;7.30;99.90
11532;DHT22;5822;51.000;5.874;2023-04-06T02:05:12;7.30;99.90
11532;DHT22;5822;51.000;5.874;2023-04-06T02:07:37;7.30;99.90
11532;DHT22;5822;51.000;5.874;2023-04-06T02:10:03;7.30;99.90
11532;DHT22;5822;51.000;5.874;2023-04-06T02:12:29;7.30;99.90
11532;DHT22;5822;51.000;5.874;2023-04-06T02:14:55;7.40;99.90
11532;DHT22;5822;51.000;5.874;2023-04-06T02:17:21;7.40;99.90
11532;DHT22;5822;51.000;5.874;2023-04-06T02:19:46;7.30;99.90
11532;DHT22;5822;51.000;5.874;2023-04-06T02:22:12;7.30;99.90
11532;DHT22;5822;51.000;5.874;2023-04-06T02:24:37;7.40;99.90
11532;DHT22;5822;51.000;5.874;2023-04-06T02:27:03;7.50;99.90
11532;DHT22;5822;51.000;5.874;2023-04-06T02:29:29;7.60;99.90
11532;DHT22;5822;51.000;5.874;2023-04-06T02:31:55;7.60;99.90
11532;DHT22;5822;51.000;5.874;2023-04-06T02:34:20;7.60;99.90
11532;DHT22;5822;51.000;5.874;2023-04-06T02:36:47;7.50;99.90
11532;DHT22;5822;51.000;5.874;2023-04-06T02:39:13;7.50;99.90
11532;DHT22;5822;51.000;5.874;2023-04-06T02:41:39;7.60;99.90
11532;DHT22;5822;51.000;5.874;2023-04-06T02:44:07;7.60;99.90
11532;DHT22;5822;51.000;5.874;2023-04-06T02:46:34;7.60;99.90
11532;DHT22;5822;51.000;5.874;2023-04-06T02:49:00;7.70;99.90
11532;DHT22;5822;51.000;5.874;2023-04-06T02:51:26;7.70;99.90
11532;DHT22;5822;51.000;5.874;2023-04-06T02:53:52;7.70;99.90
11532;DHT22;5822;51.000;5.874;2023-04-06T02:56:18;7.60;99.90
11532;DHT22;5822;51.000;5.874;2023-04-06T02:58:44;7.60;99.90
11532;DHT22;5822;51.000;5.874;2023-04-06T03:01:10;7.60;99.90
11532;DHT22;5822;51.000;5.874;2023-04-06T03:03:35;7.60;99.90
11532;DHT22;5822;51.000;5.874;2023-04-06T03:06:01;7.60;99.90
11532;DHT22;5822;51.000;5.874;2023-04-06T03:08:27;7.70;99.90
11532;DHT22;5822;51.000;5.874;2023-04-06T03:10:52;7.70;99.90
11532;DHT22;5822;51.000;5.874;2023-04-06T03:13:18;7.70;99.90
11532;DHT22;5822;51.000;5.874;2023-04-06T03:15:43;7.90;99.90
11532;DHT22;5822;51.000;5.874;2023-04-06T03:18:09;8.00;99.90
11532;DHT22;5822;51.000;5.874;2023-04-06T03:20:35;8.00;99.90
11532;DHT22;5822;51.000;5.874;2023-04-06T03:23:01;8.10;99.90
11532;DHT22;5822;51.000;5.874;2023-04-06T03:25:26;8.10;99.90
11532;DHT22;5822;51.000;5.874;2023-04-06T03:27:52;8.10;99.90
11532;DHT22;5822;51.000;5.874;2023-04-06T03:30:18;8.00;99.90
11532;DHT22;5822;51.000;5.874;2023-04-06T03:32:44;8.00;99.90
11532;DHT22;5822;51.000;5.874;2023-04-06T03:35:10;8.10;99.90
11532;DHT22;5822;51.000;5.874;2023-04-06T03:37:36;8.10;99.90
11532;DHT22;5822;51.000;5.874;2023-04-06T03:40:02;8.10;99.90
11532;DHT22;5822;51.000;5.874;2023-04-06T03:42:28;8.20;99.90
11532;DHT22;5822;51.000;5.874;2023-04-06T03:44:55;8.20;99.90
11532;DHT22;5822;51.000;5.874;2023-04-06T03:47:20;8.20;99.90
11532;DHT22;5822;51.000;5.874;2023-04-06T03:49:46;8.20;99.90
11532;DHT22;5822;51.000;5.874;2023-04-06T03:52:12;8.10;99.90
11532;DHT22;5822;51.000;5.874;2023-04-06T03:54:37;8.10;99.90
11532;DHT22;5822;51.000;5.874;2023-04-06T03:57:04;8.10;99.90
11532;DHT22;5822;51.000;5.874;2023-04-06T03:59:30;8.20;99.90
11532;DHT22;5822;51.000;5.874;2023-04-06T04:01:55;8.20;99.90
11532;DHT22;5822;51.000;5.874;2023-04-06T04:04:21;8.20;99.90
11532;DHT22;5822;51.000;5.874;2023-04-06T04:06:47;8.10;99.90
11532;DHT22;5822;51.000;5.874;2023-04-06T04:09:12;8.20;99.90
11532;DHT22;5822;51.000;5.874;2023-04-06T04:11:38;8.30;99.90
11532;DHT22;5822;51.000;5.874;2023-04-06T04:14:04;8.30;99.90
11532;DHT22;5822;51.000;5.874;2023-04-06T04:16:30;8.30;99.90
11532;DHT22;5822;51.000;5.874;2023-04-06T04:18:55;8.30;99.90
11532;DHT22;5822;51.000;5.874;2023-04-06T04:21:23;8.30;99.90
11532;DHT22;5822;51.000;5.874;2023-04-06T04:23:49;8.30;99.90
11532;DHT22;5822;51.000;5.874;2023-04-06T04:26:15;8.30;99.90
11532;DHT22;5822;51.000;5.874;2023-04-06T04:28:40;8.20;99.90
11532;DHT22;5822;51.000;5.874;2023-04-06T04:31:06;8.30;99.90
11532;DHT22;5822;51.000;5.874;2023-04-06T04:33:32;8.20;99.90
11532;DHT22;5822;51.000;5.874;2023-04-06T04:35:57;8.10;99.90
11532;DHT22;5822;51.000;5.874;2023-04-06T04:38:23;8.10;99.90
11532;DHT22;5822;51.000;5.874;2023-04-06T04:40:48;8.10;99.90
11532;DHT22;5822;51.000;5.874;2023-04-06T04:43:14;8.00;99.90
11532;DHT22;5822;51.000;5.874;2023-04-06T04:45:40;8.00;99.90
11532;DHT22;5822;51.000;5.874;2023-04-06T04:48:06;8.00;99.90
11532;DHT22;5822;51.000;5.874;2023-04-06T04:50:33;8.10;99.90
11532;DHT22;5822;51.000;5.874;2023-04-06T04:52:58;8.10;99.90
11532;DHT22;5822;51.000;5.874;2023-04-06T04:55:24;8.10;99.90
11532;DHT22;5822;51.000;5.874;2023-04-06T04:57:50;8.10;99.90
11532;DHT22;5822;51.000;5.874;2023-04-06T05:00:15;8.10;99.90
11532;DHT22;5822;51.000;5.874;2023-04-06T05:02:41;8.10;99.90
11532;DHT22;5822;51.000;5.874;2023-04-06T05:05:07;8.10;99.90
11532;DHT22;5822;51.000;5.874;2023-04-06T05:07:33;8.20;99.90
11532;DHT22;5822;51.000;5.874;2023-04-06T05:09:59;8.20;99.90
11532;DHT22;5822;51.000;5.874;2023-04-06T05:12:25;8.30;99.90
11532;DHT22;5822;51.000;5.874;2023-04-06T05:14:53;8.30;99.90
11532;DHT22;5822;51.000;5.874;2023-04-06T05:17:19;8.30;99.90
11532;DHT22;5822;51.000;5.874;2023-04-06T05:19:44;8.40;99.90
11532;DHT22;5822;51.000;5.874;2023-04-06T05:22:10;8.40;99.90
11532;DHT22;5822;51.000;5.874;2023-04-06T05:24:36;8.40;99.90
11532;DHT22;5822;51.000;5.874;2023-04-06T05:27:02;8.40;99.90
11532;DHT22;5822;51.000;5.874;2023-04-06T05:29:29;8.40;99.90
11532;DHT22;5822;51.000;5.874;2023-04-06T05:31:55;8.40;99.90
11532;DHT22;5822;51.000;5.874;2023-04-06T05:34:20;8.50;99.90
11532;DHT22;5822;51.000;5.874;2023-04-06T05:36:46;8.50;99.90
11532;DHT22;5822;51.000;5.874;2023-04-06T05:39:12;8.50;99.90
11532;DHT22;5822;51.000;5.874;2023-04-06T05:41:38;8.50;99.90
11532;DHT22;5822;51.000;5.874;2023-04-06T05:44:06;8.50;99.90
11532;DHT22;5822;51.000;5.874;2023-04-06T05:46:32;8.50;99.90
11532;DHT22;5822;51.000;5.874;2023-04-06T05:48:58;8.60;99.90
11532;DHT22;5822;51.000;5.874;2023-04-06T05:51:24;8.60;99.90
11532;DHT22;5822;51.000;5.874;2023-04-06T05:53:50;8.60;99.90
11532;DHT22;5822;51.000;5.874;2023-04-06T05:56:16;8.50;99.90
11532;DHT22;5822;51.000;5.874;2023-04-06T05:58:41;8.50;99.90
11532;DHT22;5822;51.000;5.874;2023-04-06T06:01:07;8.40;99.90
11532;DHT22;5822;51.000;5.874;2023-04-06T06:03:34;8.50;99.90
11532;DHT22;5822;51.000;5.874;2023-04-06T06:06:03;8.60;99.90
11532;DHT22;5822;51.000;5.874;2023-04-06T06:08:30;8.60;99.90
11532;DHT22;5822;51.000;5.874;2023-04-06T06:10:56;8.60;99.90
11532;DHT22;5822;51.000;5.874;2023-04-06T06:13:22;8.60;99.90
11532;DHT22;5822;51.000;5.874;2023-04-06T06:15:49;8.60;99.90
11532;DHT22;5822;51.000;5.874;2023-04-06T06:18:15;8.60;99.90
11532;DHT22;5822;51.000;5.874;2023-04-06T06:20:40;8.60;99.90
11532;DHT22;5822;51.000;5.874;2023-04-06T06:23:06;8.60;99.90
11532;DHT22;5822;51.000;5.874;2023-04-06T06:25:32;8.60;99.90
11532;DHT22;5822;51.000;5.874;2023-04-06T06:27:58;8.60;99.90
11532;DHT22;5822;51.000;5.874;2023-04-06T06:30:24;8.70;99.90
11532;DHT22;5822;51.000;5.874;2023-04-06T06:32:50;8.70;99.90
11532;DHT22;5822;51.000;5.874;2023-04-06T06:35:16;8.80;99.90
11532;DHT22;5822;51.000;5.874;2023-04-06T06:37:42;8.80;99.90
11532;DHT22;5822;51.000;5.874;2023-04-06T06:40:09;8.90;99.90
11532;DHT22;5822;51.000;5.874;2023-04-06T06:42:38;9.00;99.90
11532;DHT22;5822;51.000;5.874;2023-04-06T06:45:05;9.00;99.90
11532;DHT22;5822;51.000;5.874;2023-04-06T06:47:31;9.10;99.90
11532;DHT22;5822;51.000;5.874;2023-04-06T06:49:56;9.20;99.90
11532;DHT22;5822;51.000;5.874;2023-04-06T06:52:22;9.20;99.90
11532;DHT22;5822;51.000;5.874;2023-04-06T06:54:49;9.20;99.90
11532;DHT22;5822;51.000;5.874;2023-04-06T06:57:15;9.30;99.90
11532;DHT22;5822;51.000;5.874;2023-04-06T06:59:40;9.30;99.90
11532;DHT22;5822;51.000;5.874;2023-04-06T07:02:06;9.30;99.90
11532;DHT22;5822;51.000;5.874;2023-04-06T07:04:32;9.30;99.90
11532;DHT22;5822;51.000;5.874;2023-04-06T07:06:57;9.40;99.90
11532;DHT22;5822;51.000;5.874;2023-04-06T07:09:23;9.40;99.90
11532;DHT22;5822;51.000;5.874;2023-04-06T07:11:49;9.50;99.90
11532;DHT22;5822;51.000;5.874;2023-04-06T07:14:16;9.50;99.90
11532;DHT22;5822;51.000;5.874;2023-04-06T07:16:41;9.50;99.90
11532;DHT22;5822;51.000;5.874;2023-04-06T07:19:07;9.60;99.90
11532;DHT22;5822;51.000;5.874;2023-04-06T07:21:34;9.70;99.90
11532;DHT22;5822;51.000;5.874;2023-04-06T07:24:00;9.70;99.90
11532;DHT22;5822;51.000;5.874;2023-04-06T07:26:30;9.70;99.90
11532;DHT22;5822;51.000;5.874;2023-04-06T07:28:55;9.80;99.90
11532;DHT22;5822;51.000;5.874;2023-04-06T07:31:21;9.80;99.90
11532;DHT22;5822;51.000;5.874;2023-04-06T07:33:47;9.80;99.90
11532;DHT22;5822;51.000;5.874;2023-04-06T07:36:12;9.80;99.90
11532;DHT22;5822;51.000;5.874;2023-04-06T07:38:38;9.90;99.90
11532;DHT22;5822;51.000;5.874;2023-04-06T07:41:04;9.90;99.90
11532;DHT22;5822;51.000;5.874;2023-04-06T07:43:30;9.90;99.90
11532;DHT22;5822;51.000;5.874;2023-04-06T07:45:56;10.00;99.90
11532;DHT22;5822;51.000;5.874;2023-04-06T07:48:23;10.00;99.90
11532;DHT22;5822;51.000;5.874;2023-04-06T07:50:49;10.00;99.90
11532;DHT22;5822;51.000;5.874;2023-04-06T07:53:15;10.00;99.90
11532;DHT22;5822;51.000;5.874;2023-04-06T07:55:40;10.10;99.90
11532;DHT22;5822;51.000;5.874;2023-04-06T07:58:06;10.10;99.90
11532;DHT22;5822;51.000;5.874;2023-04-06T08:00:32;10.20;99.90
11532;DHT22;5822;51.000;5.874;2023-04-06T08:02:58;10.30;99.90
11532;DHT22;5822;51.000;5.874;2023-04-06T08:05:24;10.30;99.90
11532;DHT22;5822;51.000;5.874;2023-04-06T08:07:49;10.40;99.90
11532;DHT22;5822;51.000;5.874;2023-04-06T08:10:15;10.50;99.90
11532;DHT22;5822;51.000;5.874;2023-04-06T08:12:41;10.50;99.90
11532;DHT22;5822;51.000;5.874;2023-04-06T08:15:07;10.60;99.90
11532;DHT22;5822;51.000;5.874;2023-04-06T08:17:32;10.60;99.90
11532;DHT22;5822;51.000;5.874;2023-04-06T08:19:59;10.60;99.90
11532;DHT22;5822;51.000;5.874;2023-04-06T08:22:25;10.70;99.90
11532;DHT22;5822;51.000;5.874;2023-04-06T08:24:51;10.80;99.90
11532;DHT22;5822;51.000;5.874;2023-04-06T08:27:17;10.90;99.90
11532;DHT22;5822;51.000;5.874;2023-04-06T08:29:43;11.00;99.90
11532;DHT22;5822;51.000;5.874;2023-04-06T08:32:08;11.00;99.90
11532;DHT22;5822;51.000;5.874;2023-04-06T08:34:34;11.10;99.90
11532;DHT22;5822;51.000;5.874;2023-04-06T08:37:00;11.10;99.90
11532;DHT22;5822;51.000;5.874;2023-04-06T08:39:27;11.10;99.90
11532;DHT22;5822;51.000;5.874;2023-04-06T08:41:53;11.20;99.90
11532;DHT22;5822;51.000;5.874;2023-04-06T08:44:22;11.20;99.90
11532;DHT22;5822;51.000;5.874;2023-04-06T08:46:48;11.20;99.90
11532;DHT22;5822;51.000;5.874;2023-04-06T08:49:16;11.20;99.90
11532;DHT22;5822;51.000;5.874;2023-04-06T08:51:42;11.20;99.90
11532;DHT22;5822;51.000;5.874;2023-04-06T08:54:08;11.30;99.90
11532;DHT22;5822;51.000;5.874;2023-04-06T08:56:38;11.30;99.90
11532;DHT22;5822;51.000;5.874;2023-04-06T08:59:07;11.30;99.90
11532;DHT22;5822;51.000;5.874;2023-04-06T09:01:36;11.30;99.90
11532;DHT22;5822;51.000;5.874;2023-04-06T09:04:03;11.40;99.90
11532;DHT22;5822;51.000;5.874;2023-04-06T09:06:34;11.30;99.90
11532;DHT22;5822;51.000;5.874;2023-04-06T09:08:59;11.30;99.90
11532;DHT22;5822;51.000;5.874;2023-04-06T09:11:25;11.30;99.90
11532;DHT22;5822;51.000;5.874;2023-04-06T09:13:53;11.40;99.90
11532;DHT22;5822;51.000;5.874;2023-04-06T09:16:20;11.50;99.90
11532;DHT22;5822;51.000;5.874;2023-04-06T09:18:47;11.50;99.90
11532;DHT22;5822;51.000;5.874;2023-04-06T09:21:13;11.50;99.90
11532;DHT22;5822;51.000;5.874;2023-04-06T09:23:41;11.60;99.90
11532;DHT22;5822;51.000;5.874;2023-04-06T09:26:15;11.60;99.90
11532;DHT22;5822;51.000;5.874;2023-04-06T09:28:50;11.70;99.90
11532;DHT22;5822;51.000;5.874;2023-04-06T09:31:21;11.70;99.90
11532;DHT22;5822;51.000;5.874;2023-04-06T09:33:47;11.70;99.90
11532;DHT22;5822;51.000;5.874;2023-04-06T09:36:13;11.70;99.90
11532;DHT22;5822;51.000;5.874;2023-04-06T09:38:53;11.70;99.90
11532;DHT22;5822;51.000;5.874;2023-04-06T09:41:48;11.70;99.90
11532;DHT22;5822;51.000;5.874;2023-04-06T09:44:14;11.80;99.90
11532;DHT22;5822;51.000;5.874;2023-04-06T09:46:44;11.80;99.90
11532;DHT22;5822;51.000;5.874;2023-04-06T09:49:11;11.90;99.90
11532;DHT22;5822;51.000;5.874;2023-04-06T09:51:42;11.90;99.90
11532;DHT22;5822;51.000;5.874;2023-04-06T09:54:11;11.90;99.90
11532;DHT22;5822;51.000;5.874;2023-04-06T09:56:51;12.00;99.90
11532;DHT22;5822;51.000;5.874;2023-04-06T09:59:57;12.00;99.90
11532;DHT22;5822;51.000;5.874;2023-04-06T10:07:57;12.10;99.90
11532;DHT22;5822;51.000;5.874;2023-04-06T10:10:25;12.10;99.90
11532;DHT22;5822;51.000;5.874;2023-04-06T10:12:51;12.10;99.90
11532;DHT22;5822;51.000;5.874;2023-04-06T10:15:17;12.10;99.90
11532;DHT22;5822;51.000;5.874;2023-04-06T10:17:44;12.20;99.90
11532;DHT22;5822;51.000;5.874;2023-04-06T10:20:33;12.20;99.90
11532;DHT22;5822;51.000;5.874;2023-04-06T10:23:24;12.20;99.90
11532;DHT22;5822;51.000;5.874;2023-04-06T10:25:59;12.30;99.90
11532;DHT22;5822;51.000;5.874;2023-04-06T10:28:30;12.30;99.90
11532;DHT22;5822;51.000;5.874;2023-04-06T10:31:00;12.30;99.90
11532;DHT22;5822;51.000;5.874;2023-04-06T10:33:27;12.30;99.90
11532;DHT22;5822;51.000;5.874;2023-04-06T10:35:53;12.40;99.90
11532;DHT22;5822;51.000;5.874;2023-04-06T10:38:21;12.40;99.90
11532;DHT22;5822;51.000;5.874;2023-04-06T10:41:06;12.30;99.90
11532;DHT22;5822;51.000;5.874;2023-04-06T10:43:37;12.40;99.90
11532;DHT22;5822;51.000;5.874;2023-04-06T10:46:04;12.30;99.90
11532;DHT22;5822;51.000;5.874;2023-04-06T10:48:40;12.30;99.90
11532;DHT22;5822;51.000;5.874;2023-04-06T10:51:14;12.30;99.90
11532;DHT22;5822;51.000;5.874;2023-04-06T10:53:47;12.30;99.90
11532;DHT22;5822;51.000;5.874;2023-04-06T10:56:15;12.30;99.90
11532;DHT22;5822;51.000;5.874;2023-04-06T10:58:48;12.30;99.90
11532;DHT22;5822;51.000;5.874;2023-04-06T11:01:18;12.30;99.90
11532;DHT22;5822;51.000;5.874;2023-04-06T11:03:48;12.20;99.90
11532;DHT22;5822;51.000;5.874;2023-04-06T11:06:22;12.20;99.90
11532;DHT22;5822;51.000;5.874;2023-04-06T11:08:48;12.30;99.90
11532;DHT22;5822;51.000;5.874;2023-04-06T11:11:16;12.30;99.90
11532;DHT22;5822;51.000;5.874;2023-04-06T11:13:49;12.30;99.90
11532;DHT22;5822;51.000;5.874;2023-04-06T11:21:43;12.40;99.90
11532;DHT22;5822;51.000;5.874;2023-04-06T11:24:20;12.40;99.90
11532;DHT22;5822;51.000;5.874;2023-04-06T11:26:52;12.40;99.90
11532;DHT22;5822;51.000;5.874;2023-04-06T11:29:28;12.40;99.90
11532;DHT22;5822;51.000;5.874;2023-04-06T11:31:59;12.30;99.90
11532;DHT22;5822;51.000;5.874;2023-04-06T11:34:27;12.30;99.90
11532;DHT22;5822;51.000;5.874;2023-04-06T11:37:01;12.20;99.90
11532;DHT22;5822;51.000;5.874;2023-04-06T11:39:38;12.20;99.90
11532;DHT22;5822;51.000;5.874;2023-04-06T11:42:04;12.20;99.90
11532;DHT22;5822;51.000;5.874;2023-04-06T11:44:43;12.10;99.90
11532;DHT22;5822;51.000;5.874;2023-04-06T11:47:14;12.00;99.90
11532;DHT22;5822;51.000;5.874;2023-04-06T11:49:42;11.80;99.90
11532;DHT22;5822;51.000;5.874;2023-04-06T11:52:18;11.70;99.90
11532;DHT22;5822;51.000;5.874;2023-04-06T11:54:45;11.80;99.90
11532;DHT22;5822;51.000;5.874;2023-04-06T11:57:11;11.80;99.90
11532;DHT22;5822;51.000;5.874;2023-04-06T11:59:36;11.70;99.90
11532;DHT22;5822;51.000;5.874;2023-04-06T12:02:03;11.70;99.90
11532;DHT22;5822;51.000;5.874;2023-04-06T12:04:30;11.60;99.90
11532;DHT22;5822;51.000;5.874;2023-04-06T12:06:56;11.70;99.90
11532;DHT22;5822;51.000;5.874;2023-04-06T12:09:24;11.60;99.90
11532;DHT22;5822;51.000;5.874;2023-04-06T12:11:50;11.60;99.90
11532;DHT22;5822;51.000;5.874;2023-04-06T12:14:16;11.80;99.90
11532;DHT22;5822;51.000;5.874;2023-04-06T12:16:42;11.80;99.90
11532;DHT22;5822;51.000;5.874;2023-04-06T12:19:08;11.80;99.90
11532;DHT22;5822;51.000;5.874;2023-04-06T12:21:35;11.90;99.90
11532;DHT22;5822;51.000;5.874;2023-04-06T12:24:03;11.80;99.90
11532;DHT22;5822;51.000;5.874;2023-04-06T12:26:33;11.90;99.90
11532;DHT22;5822;51.000;5.874;2023-04-06T12:28:59;11.90;99.90
11532;DHT22;5822;51.000;5.874;2023-04-06T12:31:34;11.90;99.90
11532;DHT22;5822;51.000;5.874;2023-04-06T12:34:00;11.90;99.90
11532;DHT22;5822;51.000;5.874;2023-04-06T12:36:27;11.90;99.90
11532;DHT22;5822;51.000;5.874;2023-04-06T12:38:53;11.90;99.90
11532;DHT22;5822;51.000;5.874;2023-04-06T12:41:19;11.80;99.90
11532;DHT22;5822;51.000;5.874;2023-04-06T12:43:45;11.80;99.90
11532;DHT22;5822;51.000;5.874;2023-04-06T12:46:11;11.80;99.90
11532;DHT22;5822;51.000;5.874;2023-04-06T12:48:38;11.80;99.90
11532;DHT22;5822;51.000;5.874;2023-04-06T12:51:07;11.80;99.90
11532;DHT22;5822;51.000;5.874;2023-04-06T12:53:33;11.90;99.90
11532;DHT22;5822;51.000;5.874;2023-04-06T12:56:00;11.80;99.90
11532;DHT22;5822;51.000;5.874;2023-04-06T12:58:26;11.70;99.90
11532;DHT22;5822;51.000;5.874;2023-04-06T13:00:53;11.80;99.90
11532;DHT22;5822;51.000;5.874;2023-04-06T13:03:20;11.90;99.90
11532;DHT22;5822;51.000;5.874;2023-04-06T13:05:48;11.80;99.90
11532;DHT22;5822;51.000;5.874;2023-04-06T13:08:14;11.80;99.90
11532;DHT22;5822;51.000;5.874;2023-04-06T13:10:47;11.90;99.90
11532;DHT22;5822;51.000;5.874;2023-04-06T13:13:17;11.90;99.90
11532;DHT22;5822;51.000;5.874;2023-04-06T13:15:44;11.80;99.90
11532;DHT22;5822;51.000;5.874;2023-04-06T13:18:10;11.80;99.90
11532;DHT22;5822;51.000;5.874;2023-04-06T13:20:36;11.70;99.90
11532;DHT22;5822;51.000;5.874;2023-04-06T13:23:02;11.70;99.90
11532;DHT22;5822;51.000;5.874;2023-04-06T13:25:27;11.70;99.90
11532;DHT22;5822;51.000;5.874;2023-04-06T13:27:54;11.70;99.90
11532;DHT22;5822;51.000;5.874;2023-04-06T13:30:20;11.80;99.90
11532;DHT22;5822;51.000;5.874;2023-04-06T13:32:46;11.80;99.90
11532;DHT22;5822;51.000;5.874;2023-04-06T13:35:11;11.70;99.90
11532;DHT22;5822;51.000;5.874;2023-04-06T13:37:38;11.70;99.90
11532;DHT22;5822;51.000;5.874;2023-04-06T13:40:04;11.70;99.90
11532;DHT22;5822;51.000;5.874;2023-04-06T13:42:30;11.70;99.90
11532;DHT22;5822;51.000;5.874;2023-04-06T13:44:56;11.70;99.90
11532;DHT22;5822;51.000;5.874;2023-04-06T13:47:21;11.70;99.90
11532;DHT22;5822;51.000;5.874;2023-04-06T13:49:49;11.70;99.90
11532;DHT22;5822;51.000;5.874;2023-04-06T13:52:16;11.70;99.90
11532;DHT22;5822;51.000;5.874;2023-04-06T13:54:42;11.70;99.90
11532;DHT22;5822;51.000;5.874;2023-04-06T13:57:08;11.60;99.90
11532;DHT22;5822;51.000;5.874;2023-04-06T13:59:34;11.60;99.90
11532;DHT22;5822;51.000;5.874;2023-04-06T14:02:04;11.60;99.90
11532;DHT22;5822;51.000;5.874;2023-04-06T14:04:30;11.60;99.90
11532;DHT22;5822;51.000;5.874;2023-04-06T14:06:59;11.60;99.90
11532;DHT22;5822;51.000;5.874;2023-04-06T14:09:25;11.60;99.90
11532;DHT22;5822;51.000;5.874;2023-04-06T14:11:52;11.70;99.90
11532;DHT22;5822;51.000;5.874;2023-04-06T14:14:17;11.60;99.90
11532;DHT22;5822;51.000;5.874;2023-04-06T14:16:43;11.60;99.90
11532;DHT22;5822;51.000;5.874;2023-04-06T14:19:13;11.70;99.90
11532;DHT22;5822;51.000;5.874;2023-04-06T14:21:39;11.70;99.90
11532;DHT22;5822;51.000;5.874;2023-04-06T14:24:08;11.70;99.90
11532;DHT22;5822;51.000;5.874;2023-04-06T14:26:38;11.80;99.90
11532;DHT22;5822;51.000;5.874;2023-04-06T14:29:04;11.70;99.90
11532;DHT22;5822;51.000;5.874;2023-04-06T14:31:31;11.70;99.90
11532;DHT22;5822;51.000;5.874;2023-04-06T14:33:57;11.80;99.90
11532;DHT22;5822;51.000;5.874;2023-04-06T14:36:23;11.80;99.90
11532;DHT22;5822;51.000;5.874;2023-04-06T14:38:49;11.80;99.90
11532;DHT22;5822;51.000;5.874;2023-04-06T14:41:16;11.80;99.90
11532;DHT22;5822;51.000;5.874;2023-04-06T14:43:42;11.80;99.90
11532;DHT22;5822;51.000;5.874;2023-04-06T14:46:08;11.80;99.90
11532;DHT22;5822;51.000;5.874;2023-04-06T14:48:35;11.70;99.90
11532;DHT22;5822;51.000;5.874;2023-04-06T14:51:01;11.70;99.90
11532;DHT22;5822;51.000;5.874;2023-04-06T14:53:26;11.70;99.90
11532;DHT22;5822;51.000;5.874;2023-04-06T14:55:53;11.70;99.90
11532;DHT22;5822;51.000;5.874;2023-04-06T14:58:19;11.80;99.90
11532;DHT22;5822;51.000;5.874;2023-04-06T15:00:45;11.70;99.90
11532;DHT22;5822;51.000;5.874;2023-04-06T15:03:11;11.80;99.90
11532;DHT22;5822;51.000;5.874;2023-04-06T15:05:37;11.70;99.90
11532;DHT22;5822;51.000;5.874;2023-04-06T15:08:02;11.70;99.90
11532;DHT22;5822;51.000;5.874;2023-04-06T15:10:31;11.70;99.90
11532;DHT22;5822;51.000;5.874;2023-04-06T15:12:57;11.60;99.90
11532;DHT22;5822;51.000;5.874;2023-04-06T15:15:22;11.70;99.90
11532;DHT22;5822;51.000;5.874;2023-04-06T15:17:48;11.70;99.90
11532;DHT22;5822;51.000;5.874;2023-04-06T15:20:14;11.60;99.90
11532;DHT22;5822;51.000;5.874;2023-04-06T15:22:42;11.60;99.90
11532;DHT22;5822;51.000;5.874;2023-04-06T15:25:08;11.50;99.90
11532;DHT22;5822;51.000;5.874;2023-04-06T15:27:34;11.50;99.90
11532;DHT22;5822;51.000;5.874;2023-04-06T15:29:59;11.50;99.90
11532;DHT22;5822;51.000;5.874;2023-04-06T15:32:25;11.40;99.90
11532;DHT22;5822;51.000;5.874;2023-04-06T15:34:53;11.40;99.90
11532;DHT22;5822;51.000;5.874;2023-04-06T15:37:18;11.40;99.90
11532;DHT22;5822;51.000;5.874;2023-04-06T15:39:44;11.40;99.90
11532;DHT22;5822;51.000;5.874;2023-04-06T15:42:10;11.40;99.90
11532;DHT22;5822;51.000;5.874;2023-04-06T15:44:36;11.40;99.90
11532;DHT22;5822;51.000;5.874;2023-04-06T15:47:01;11.30;99.90
11532;DHT22;5822;51.000;5.874;2023-04-06T15:49:27;11.30;99.90
11532;DHT22;5822;51.000;5.874;2023-04-06T15:51:53;11.20;99.90
11532;DHT22;5822;51.000;5.874;2023-04-06T15:54:18;11.20;99.90
11532;DHT22;5822;51.000;5.874;2023-04-06T15:56:46;11.20;99.90
11532;DHT22;5822;51.000;5.874;2023-04-06T15:59:11;11.10;99.90
11532;DHT22;5822;51.000;5.874;2023-04-06T16:01:38;11.10;99.90
11532;DHT22;5822;51.000;5.874;2023-04-06T16:04:08;11.10;99.90